Terminal Aerodrome Forecast
Issued by NWS

Home | Current Version | Previous Version | Text Only | Print | Product List | Glossary On
Versions: 1 2 3 4 5 6 7 8 9 10 11 12 13 14 15 16 17 18 19 20 21 22 23 24 25
000
FTUS42 KRAH 230544 CCA
TAFRWI
TAF COR
KRWI 230544Z 2306/2406 VRB03KT P6SM BKN250
     FM231500 10004KT P6SM SCT070 BKN120
     FM231800 10006KT 6SM -RA BKN010 OVC025
     FM232000 10006KT 6SM -RA BKN025 OVC070
     FM232200 11007KT 3SM -RA OVC006
     FM240000 16011KT 3SM -RADZ OVC003=

USA.gov is the U.S. government's official web portal to all federal, state and local government web resources and services.